createdAt,value
2022-12-17T00:01:39.144Z,-3.32
2022-12-17T00:06:59.362Z,-3.27
2022-12-17T00:12:19.433Z,-3.23
2022-12-17T00:17:39.424Z,-3.29
2022-12-17T00:23:00.605Z,-3.27
2022-12-17T00:28:20.825Z,-3.11
2022-12-17T00:33:41.108Z,-3.35
2022-12-17T00:39:04.451Z,-3.01
2022-12-17T00:44:24.778Z,-3.16
2022-12-17T00:49:58.784Z,-3.03
2022-12-17T00:55:18.985Z,-2.74
2022-12-17T01:00:39.315Z,-2.99
2022-12-17T01:05:59.695Z,-2.98
2022-12-17T01:11:29.897Z,-3.15
2022-12-17T01:16:50.024Z,-3.09
2022-12-17T01:22:10.464Z,-3.02
2022-12-17T01:27:30.792Z,-3.09
2022-12-17T01:32:51.027Z,-3.12
2022-12-17T01:38:12.498Z,-3.08
2022-12-17T01:43:48.912Z,-2.86
2022-12-17T01:49:09.168Z,-2.92
2022-12-17T01:54:30.801Z,-2.98
2022-12-17T02:00:06.701Z,-3.10
2022-12-17T02:05:34.027Z,-2.96
2022-12-17T02:11:13.441Z,-2.73
2022-12-17T02:16:45.169Z,-2.92
2022-12-17T02:22:09.384Z,-3.22
2022-12-17T02:27:30.785Z,-3.13
2022-12-17T02:32:53.099Z,-2.98
2022-12-17T02:38:14.343Z,-3.10
2022-12-17T02:43:36.019Z,-3.16
2022-12-17T02:48:56.670Z,-3.18
2022-12-17T02:54:21.632Z,-3.01
2022-12-17T02:59:42.171Z,-2.75
2022-12-17T03:05:35.655Z,-2.84
2022-12-17T03:10:48.611Z,-2.99
2022-12-17T03:16:08.954Z,-2.95
2022-12-17T03:21:29.275Z,-2.97
2022-12-17T03:26:50.117Z,-3.07
2022-12-17T03:32:11.371Z,-2.76
2022-12-17T03:37:31.623Z,-2.99
2022-12-17T03:42:51.883Z,-3.01
2022-12-17T03:48:31.915Z,-3.08
2022-12-17T03:53:52.040Z,-2.99
2022-12-17T03:59:12.468Z,-3.18
2022-12-17T04:04:32.607Z,-2.90
2022-12-17T04:09:53.017Z,-3.21
2022-12-17T04:15:13.249Z,-2.98
2022-12-17T04:20:33.850Z,-3.19
2022-12-17T04:25:53.994Z,-3.28
2022-12-17T04:31:14.249Z,-2.84
2022-12-17T04:36:34.589Z,-2.77
2022-12-17T04:41:54.629Z,-2.80
2022-12-17T04:47:14.911Z,-2.79
2022-12-17T04:52:35.193Z,-2.92
2022-12-17T04:57:55.348Z,-2.74
2022-12-17T05:03:29.614Z,-2.69
2022-12-17T05:08:49.519Z,-2.97
2022-12-17T05:14:09.690Z,-2.80
2022-12-17T05:19:29.918Z,-3.05
2022-12-17T05:24:50.286Z,-3.13
2022-12-17T05:30:10.445Z,-2.98
2022-12-17T05:35:30.772Z,-3.00
2022-12-17T05:40:50.964Z,-2.98
2022-12-17T05:46:11.240Z,-2.95
2022-12-17T05:51:35.708Z,-2.75
2022-12-17T05:56:58.413Z,-2.83
2022-12-17T06:02:18.675Z,-2.79
2022-12-17T06:07:38.842Z,-2.57
2022-12-17T06:12:59.057Z,-2.94
2022-12-17T06:18:19.342Z,-2.86
2022-12-17T06:23:39.674Z,-2.79
2022-12-17T06:29:00.922Z,-2.49
2022-12-17T06:34:21.270Z,-2.79
2022-12-17T06:39:41.702Z,-2.68
2022-12-17T06:45:01.871Z,-2.70
2022-12-17T06:50:23.570Z,-2.74
2022-12-17T06:55:43.845Z,-2.65
2022-12-17T07:01:22.060Z,-2.70
2022-12-17T07:06:42.131Z,-2.65
2022-12-17T07:12:02.429Z,-2.37
2022-12-17T07:17:22.543Z,-2.24
2022-12-17T07:22:42.679Z,-2.46
2022-12-17T07:28:11.397Z,-2.49
2022-12-17T07:33:31.632Z,-2.31
2022-12-17T07:38:52.290Z,-2.27
2022-12-17T07:44:12.560Z,-2.31
2022-12-17T07:49:32.749Z,-2.38
2022-12-17T07:54:53.048Z,-2.25
2022-12-17T08:00:12.982Z,-2.16
2022-12-17T08:05:46.835Z,-1.95
2022-12-17T08:11:08.237Z,-1.83
2022-12-17T08:16:28.498Z,-1.77
2022-12-17T08:21:48.737Z,-1.59
2022-12-17T08:27:09.118Z,-1.83
2022-12-17T08:32:29.834Z,-1.67
2022-12-17T08:37:50.143Z,-1.68
2022-12-17T08:43:15.488Z,-1.78
2022-12-17T08:48:35.710Z,-1.39
2022-12-17T08:53:56.339Z,-1.47
2022-12-17T08:59:16.530Z,-1.49
2022-12-17T09:04:37.256Z,-1.38
2022-12-17T09:09:57.305Z,-1.88
2022-12-17T09:15:17.598Z,-1.75
2022-12-17T09:20:37.733Z,-1.86
2022-12-17T09:25:58.386Z,-1.94
2022-12-17T09:31:19.687Z,-1.57
2022-12-17T09:36:40.556Z,-1.49
2022-12-17T09:42:15.392Z,-1.26
2022-12-17T09:47:54.169Z,-1.22
2022-12-17T09:53:14.340Z,-1.29
2022-12-17T09:58:37.833Z,-1.21
2022-12-17T10:04:00.834Z,-1.06
2022-12-17T10:09:31.295Z,-1.32
2022-12-17T10:14:51.959Z,-1.56
2022-12-17T10:20:13.627Z,-1.28
2022-12-17T10:25:37.029Z,-1.20
2022-12-17T10:30:57.780Z,-1.36
2022-12-17T10:36:18.231Z,-1.53
2022-12-17T10:41:47.018Z,-1.22
2022-12-17T10:47:15.284Z,-1.21
2022-12-17T10:52:55.729Z,-1.48
2022-12-17T10:58:21.851Z,-1.32
2022-12-17T11:03:55.593Z,-0.99
2022-12-17T11:09:19.789Z,-0.86
2022-12-17T11:14:39.954Z,-1.15
2022-12-17T11:20:09.220Z,-0.85
2022-12-17T11:25:41.684Z,-0.77
2022-12-17T11:31:24.030Z,-1.04
2022-12-17T11:36:54.351Z,-1.10
2022-12-17T11:42:26.981Z,-0.95
2022-12-17T11:47:47.255Z,-0.78
2022-12-17T11:53:16.459Z,-0.68
2022-12-17T11:58:56.334Z,-0.66
2022-12-17T12:04:25.680Z,-0.37
2022-12-17T12:10:07.862Z,-0.28
2022-12-17T12:15:51.157Z,-0.53
2022-12-17T12:21:27.451Z,-0.77
2022-12-17T12:27:17.146Z,-0.80
2022-12-17T12:32:45.799Z,-0.61
2022-12-17T12:38:06.594Z,-0.82
2022-12-17T12:43:39.135Z,-0.66
2022-12-17T12:49:32.244Z,-0.60
2022-12-17T12:55:04.801Z,-0.57
2022-12-17T13:00:25.501Z,-0.56
2022-12-17T13:05:39.959Z,-0.63
2022-12-17T13:10:41.672Z,-0.53
2022-12-17T13:15:49.158Z,-0.57
2022-12-17T13:21:00.105Z,-0.46
2022-12-17T13:26:39.959Z,-0.56
2022-12-17T13:32:19.098Z,-0.57
2022-12-17T13:37:40.396Z,-0.31
2022-12-17T13:42:46.076Z,-0.15
2022-12-17T13:47:59.031Z,-0.40
2022-12-17T13:53:10.660Z,-0.54
2022-12-17T13:58:24.229Z,-0.50
2022-12-17T14:03:49.892Z,-0.43
2022-12-17T14:08:48.707Z,-0.45
2022-12-17T14:13:50.560Z,-0.60
2022-12-17T14:18:59.293Z,-0.70
2022-12-17T14:24:01.191Z,-0.92
2022-12-17T14:29:12.747Z,-0.85
2022-12-17T14:34:14.518Z,-0.84
2022-12-17T14:39:31.689Z,-0.93
2022-12-17T14:44:33.690Z,-1.10
2022-12-17T14:49:37.582Z,-1.00
2022-12-17T14:54:45.288Z,-0.92
2022-12-17T14:59:47.064Z,-0.86
2022-12-17T15:04:49.340Z,-0.75
2022-12-17T15:09:52.819Z,-0.89
2022-12-17T15:14:54.467Z,-0.91
2022-12-17T15:19:56.495Z,-0.80
2022-12-17T15:24:58.208Z,-0.72
2022-12-17T15:29:59.890Z,-0.82
2022-12-17T15:35:01.847Z,-0.82
2022-12-17T15:40:05.458Z,-0.77
2022-12-17T15:45:07.890Z,-0.92
2022-12-17T15:50:10.083Z,-0.91
2022-12-17T15:55:15.432Z,-1.30
2022-12-17T16:00:17.336Z,-1.22
2022-12-17T16:05:20.956Z,-1.79
2022-12-17T16:10:22.934Z,-1.79
2022-12-17T16:15:24.794Z,-1.99
2022-12-17T16:20:26.450Z,-2.14
2022-12-17T16:25:28.148Z,-2.08
2022-12-17T16:30:29.807Z,-2.20
2022-12-17T16:35:31.499Z,-1.94
2022-12-17T16:40:33.163Z,-1.86
2022-12-17T16:45:34.823Z,-1.75
2022-12-17T16:50:36.477Z,-1.88
2022-12-17T16:55:43.059Z,-1.83
2022-12-17T17:00:54.043Z,-1.80
2022-12-17T17:06:00.180Z,-1.78
2022-12-17T17:11:21.410Z,-1.93
2022-12-17T17:16:24.513Z,-1.95
2022-12-17T17:21:29.622Z,-2.06
2022-12-17T17:26:33.162Z,-2.37
2022-12-17T17:32:08.413Z,-2.29
2022-12-17T17:36:56.818Z,-2.81
2022-12-17T17:41:58.873Z,-2.95
2022-12-17T17:47:00.849Z,-3.11
2022-12-17T17:52:11.451Z,-3.53
2022-12-17T17:57:13.720Z,-3.81
2022-12-17T18:02:15.499Z,-3.86
2022-12-17T18:07:25.267Z,-3.98
2022-12-17T18:12:46.272Z,-4.38
2022-12-17T18:17:51.329Z,-4.36
2022-12-17T18:22:53.014Z,-4.34
2022-12-17T18:27:54.947Z,-4.61
2022-12-17T18:32:57.457Z,-4.60
2022-12-17T18:37:59.424Z,-4.94
2022-12-17T18:43:19.272Z,-5.30
2022-12-17T18:48:21.018Z,-5.47
2022-12-17T18:53:24.583Z,-5.31
2022-12-17T18:58:26.234Z,-5.46
2022-12-17T19:03:27.943Z,-5.76
2022-12-17T19:08:29.599Z,-5.72
2022-12-17T19:13:33.221Z,-5.73
2022-12-17T19:18:35.294Z,-5.94
2022-12-17T19:23:37.915Z,-6.12
2022-12-17T19:28:41.350Z,-6.09
2022-12-17T19:33:43.166Z,-6.28
2022-12-17T19:38:45.943Z,-6.54
2022-12-17T19:43:53.235Z,-6.70
2022-12-17T19:48:57.327Z,-6.67
2022-12-17T19:54:06.507Z,-6.51
2022-12-17T19:59:10.917Z,-6.58
2022-12-17T20:04:14.494Z,-6.80
2022-12-17T20:09:17.518Z,-6.94
2022-12-17T20:14:21.999Z,-7.01
2022-12-17T20:19:31.806Z,-7.19
2022-12-17T20:24:33.608Z,-7.24
2022-12-17T20:29:35.891Z,-7.13
2022-12-17T20:34:37.600Z,-7.42
2022-12-17T20:39:39.271Z,-7.34
2022-12-17T20:44:41.546Z,-7.35
2022-12-17T20:49:43.217Z,-7.54
2022-12-17T20:54:44.930Z,-7.49
2022-12-17T20:59:46.687Z,-7.72
2022-12-17T21:04:48.351Z,-7.68
2022-12-17T21:09:50.050Z,-7.56
2022-12-17T21:14:51.727Z,-7.76
2022-12-17T21:19:53.432Z,-7.80
2022-12-17T21:24:55.121Z,-7.85
2022-12-17T21:29:57.280Z,-7.80
2022-12-17T21:34:59.311Z,-8.22
2022-12-17T21:40:01.972Z,-8.09
2022-12-17T21:45:04.037Z,-8.34
2022-12-17T21:50:06.399Z,-8.27
2022-12-17T21:55:08.308Z,-8.40
2022-12-17T22:00:10.672Z,-8.75
2022-12-17T22:05:16.343Z,-8.78
2022-12-17T22:10:38.894Z,-8.82
2022-12-17T22:15:46.177Z,-9.11
2022-12-17T22:20:58.410Z,-8.90
2022-12-17T22:26:00.085Z,-9.23
2022-12-17T22:31:25.273Z,-9.12
2022-12-17T22:36:59.524Z,-8.96
2022-12-17T22:44:38.631Z,-8.95
2022-12-17T22:47:31.133Z,-8.87
2022-12-17T22:52:32.858Z,-8.99
2022-12-17T22:57:38.214Z,-9.04
2022-12-17T23:02:40.792Z,-9.12
2022-12-17T23:07:42.506Z,-9.34
2022-12-17T23:12:51.052Z,-9.51
2022-12-17T23:17:55.717Z,-9.32
2022-12-17T23:22:57.683Z,-9.54
2022-12-17T23:27:59.807Z,-9.87
2022-12-17T23:33:01.479Z,-9.64
2022-12-17T23:38:03.162Z,-9.73
2022-12-17T23:43:04.837Z,-9.80
2022-12-17T23:48:07.928Z,-9.76
2022-12-17T23:53:09.600Z,-9.82
2022-12-17T23:58:11.283Z,-9.75
